createdAt,value
2023-05-21T00:02:00.333Z,3.80
2023-05-21T00:04:31.972Z,4.00
2023-05-21T00:07:08.624Z,4.25
2023-05-21T00:09:38.952Z,4.40
2023-05-21T00:12:12.655Z,3.88
2023-05-21T00:14:45.419Z,3.97
2023-05-21T00:17:18.902Z,4.13
2023-05-21T00:19:50.397Z,4.75
2023-05-21T00:22:26.090Z,4.05
2023-05-21T00:24:56.601Z,4.43
2023-05-21T00:29:57.000Z,3.88
2023-05-21T00:32:30.569Z,3.65
2023-05-21T00:35:03.967Z,3.75
2023-05-21T00:37:36.872Z,3.63
2023-05-21T00:40:09.554Z,4.22
2023-05-21T00:42:41.630Z,3.38
2023-05-21T00:45:12.833Z,3.20
2023-05-21T00:47:43.528Z,3.58
2023-05-21T00:50:15.283Z,4.47
2023-05-21T00:52:49.342Z,3.13
2023-05-21T00:55:19.738Z,3.28
2023-05-21T00:57:54.838Z,3.63
2023-05-21T01:00:26.820Z,3.30
2023-05-21T01:03:01.552Z,3.80
2023-05-21T01:05:32.725Z,3.65
2023-05-21T01:08:07.910Z,4.28
2023-05-21T01:10:40.259Z,3.78
2023-05-21T01:13:11.000Z,4.53
2023-05-21T01:15:41.514Z,3.50
2023-05-21T01:18:17.187Z,3.67
2023-05-21T01:20:52.657Z,3.55
2023-05-21T01:23:25.618Z,3.58
2023-05-21T01:25:55.999Z,3.70
2023-05-21T01:28:30.035Z,3.88
2023-05-21T01:31:12.058Z,3.80
2023-05-21T01:33:49.357Z,4.10
2023-05-21T01:36:24.800Z,4.13
2023-05-21T01:39:04.337Z,4.05
2023-05-21T01:41:39.862Z,4.13
2023-05-21T01:44:12.052Z,3.85
2023-05-21T01:46:45.692Z,3.78
2023-05-21T01:49:17.513Z,3.38
2023-05-21T01:51:51.716Z,3.72
2023-05-21T01:54:25.065Z,3.80
2023-05-21T01:56:58.756Z,3.60
2023-05-21T01:59:30.227Z,3.55
2023-05-21T02:02:00.600Z,3.67
2023-05-21T02:04:31.989Z,3.30
2023-05-21T02:07:02.666Z,3.53
2023-05-21T02:09:35.663Z,3.75
2023-05-21T02:12:16.629Z,4.85
2023-05-21T02:14:51.289Z,4.70
2023-05-21T02:17:22.462Z,4.07
2023-05-21T02:19:52.854Z,3.95
2023-05-21T02:22:25.274Z,3.90
2023-05-21T02:24:59.231Z,3.03
2023-05-21T02:27:32.828Z,3.35
2023-05-21T02:30:03.399Z,3.50
2023-05-21T02:32:35.276Z,3.70
2023-05-21T02:35:07.718Z,3.50
2023-05-21T02:37:41.886Z,3.70
2023-05-21T02:40:15.961Z,3.72
2023-05-21T02:42:49.748Z,3.85
2023-05-21T02:45:20.653Z,3.78
2023-05-21T02:47:51.235Z,3.38
2023-05-21T02:50:22.974Z,3.63
2023-05-21T02:52:53.226Z,3.97
2023-05-21T02:58:11.276Z,3.90
2023-05-21T03:00:41.907Z,3.97
2023-05-21T03:03:12.454Z,3.22
2023-05-21T03:05:42.992Z,3.35
2023-05-21T03:08:14.190Z,3.53
2023-05-21T03:10:48.486Z,4.45
2023-05-21T03:13:18.940Z,3.40
2023-05-21T03:15:49.526Z,3.13
2023-05-21T03:18:20.773Z,3.28
2023-05-21T03:20:53.425Z,3.70
2023-05-21T03:23:23.766Z,3.80
2023-05-21T03:25:56.922Z,3.38
2023-05-21T03:28:27.360Z,3.97
2023-05-21T03:30:57.667Z,3.42
2023-05-21T03:33:28.313Z,3.78
2023-05-21T03:35:58.671Z,3.20
2023-05-21T03:38:30.280Z,4.63
2023-05-21T03:41:03.345Z,3.85
2023-05-21T03:43:33.706Z,3.13
2023-05-21T03:46:04.368Z,4.70
2023-05-21T03:48:41.773Z,4.47
2023-05-21T03:51:13.499Z,4.13
2023-05-21T03:53:44.814Z,3.60
2023-05-21T03:56:17.752Z,4.15
2023-05-21T03:58:48.335Z,4.68
2023-05-21T04:01:23.482Z,3.90
2023-05-21T04:03:53.990Z,3.65
2023-05-21T04:06:24.527Z,4.35
2023-05-21T04:11:27.410Z,4.30
2023-05-21T04:13:57.671Z,3.60
2023-05-21T04:16:28.306Z,4.22
2023-05-21T04:18:58.701Z,3.63
2023-05-21T04:21:37.916Z,3.22
2023-05-21T04:24:08.617Z,3.88
2023-05-21T04:26:42.592Z,3.90
2023-05-21T04:29:12.996Z,4.07
2023-05-21T04:31:44.416Z,3.35
2023-05-21T04:34:18.131Z,3.70
2023-05-21T04:36:49.123Z,3.22
2023-05-21T04:39:22.559Z,3.53
2023-05-21T04:41:56.742Z,3.63
2023-05-21T04:44:27.306Z,3.38
2023-05-21T04:47:05.342Z,2.80
2023-05-21T04:49:40.101Z,3.17
2023-05-21T04:52:10.976Z,2.80
2023-05-21T04:54:42.311Z,3.70
2023-05-21T04:57:18.615Z,3.13
2023-05-21T05:02:19.885Z,3.30
2023-05-21T05:04:50.474Z,3.17
2023-05-21T05:07:26.515Z,3.30
2023-05-21T05:09:59.055Z,2.60
2023-05-21T05:12:32.212Z,2.80
2023-05-21T05:15:04.689Z,3.55
2023-05-21T05:17:35.875Z,3.30
2023-05-21T05:20:10.291Z,3.20
2023-05-21T05:22:41.154Z,3.20
2023-05-21T05:25:14.408Z,2.67
2023-05-21T05:27:47.295Z,3.20
2023-05-21T05:30:17.938Z,3.80
2023-05-21T05:32:50.332Z,3.28
2023-05-21T05:35:24.073Z,3.25
2023-05-21T05:37:55.491Z,3.85
2023-05-21T05:40:25.851Z,3.25
2023-05-21T05:43:01.349Z,3.38
2023-05-21T05:45:33.642Z,3.47
2023-05-21T05:48:06.828Z,3.50
2023-05-21T05:50:37.126Z,3.33
2023-05-21T05:53:10.470Z,3.83
2023-05-21T05:55:43.791Z,3.80
2023-05-21T05:58:16.839Z,3.40
2023-05-21T06:00:47.418Z,3.00
2023-05-21T06:03:18.500Z,3.33
2023-05-21T06:05:51.968Z,3.22
2023-05-21T06:08:22.322Z,3.08
2023-05-21T06:10:54.810Z,3.65
2023-05-21T06:13:27.661Z,3.20
2023-05-21T06:16:01.784Z,2.63
2023-05-21T06:18:32.104Z,3.45
2023-05-21T06:21:03.088Z,3.08
2023-05-21T06:23:35.727Z,3.30
2023-05-21T06:26:07.596Z,2.72
2023-05-21T06:28:43.799Z,3.78
2023-05-21T06:31:16.413Z,2.90
2023-05-21T06:33:46.803Z,3.28
2023-05-21T06:36:17.360Z,3.30
2023-05-21T06:38:48.191Z,2.70
2023-05-21T06:41:19.021Z,3.92
2023-05-21T06:43:52.239Z,3.08
2023-05-21T06:46:22.600Z,3.15
2023-05-21T06:48:53.057Z,3.10
2023-05-21T06:51:24.274Z,2.70
2023-05-21T06:53:54.579Z,2.80
2023-05-21T06:56:26.703Z,3.05
2023-05-21T06:59:07.108Z,2.78
2023-05-21T07:01:37.785Z,2.70
2023-05-21T07:04:08.443Z,3.03
2023-05-21T07:06:38.875Z,2.97
2023-05-21T07:09:09.231Z,2.90
2023-05-21T07:11:40.106Z,2.88
2023-05-21T07:14:15.347Z,2.72
2023-05-21T07:16:45.682Z,2.70
2023-05-21T07:19:16.633Z,2.65
2023-05-21T07:21:48.747Z,2.63
2023-05-21T07:24:19.018Z,3.35
2023-05-21T07:26:49.344Z,2.97
2023-05-21T07:29:24.310Z,2.65
2023-05-21T07:31:54.613Z,3.00
2023-05-21T07:34:27.787Z,2.65
2023-05-21T07:36:58.037Z,3.17
2023-05-21T07:39:28.405Z,5.65
2023-05-21T07:41:58.695Z,3.83
2023-05-21T07:44:32.180Z,2.63
2023-05-21T07:47:09.752Z,2.60
2023-05-21T07:49:40.033Z,2.95
2023-05-21T07:52:12.672Z,2.70
2023-05-21T07:54:47.944Z,2.72
2023-05-21T07:57:19.314Z,2.80
2023-05-21T07:59:55.348Z,2.50
2023-05-21T08:02:28.796Z,3.25
2023-05-21T08:04:59.216Z,2.38
2023-05-21T08:07:32.801Z,2.72
2023-05-21T08:10:06.277Z,2.72
2023-05-21T08:12:36.921Z,2.92
2023-05-21T08:15:10.969Z,3.03
2023-05-21T08:17:41.372Z,2.70
2023-05-21T08:20:13.745Z,2.65
2023-05-21T08:22:44.569Z,3.05
2023-05-21T08:25:20.775Z,3.45
2023-05-21T08:30:26.621Z,3.20
2023-05-21T08:32:59.909Z,3.17
2023-05-21T08:35:33.362Z,3.33
2023-05-21T08:38:03.687Z,3.53
2023-05-21T08:40:38.840Z,2.90
2023-05-21T08:43:13.434Z,2.92
2023-05-21T08:45:51.798Z,3.25
2023-05-21T08:48:28.147Z,2.88
2023-05-21T08:50:58.530Z,2.45
2023-05-21T08:53:35.780Z,3.08
2023-05-21T08:56:06.514Z,3.03
2023-05-21T08:58:38.358Z,3.47
2023-05-21T09:01:12.745Z,3.00
2023-05-21T09:03:46.717Z,2.92
2023-05-21T09:06:18.075Z,2.83
2023-05-21T09:08:53.615Z,3.08
2023-05-21T09:11:24.282Z,3.75
2023-05-21T09:13:58.351Z,2.60
2023-05-21T09:16:33.969Z,4.82
2023-05-21T09:19:04.910Z,2.90
2023-05-21T09:21:35.306Z,3.15
2023-05-21T09:24:16.324Z,3.28
2023-05-21T09:26:52.751Z,3.22
2023-05-21T09:29:23.085Z,2.85
2023-05-21T09:31:57.807Z,2.45
2023-05-21T09:34:28.632Z,3.47
2023-05-21T09:37:01.852Z,4.05
2023-05-21T09:39:33.686Z,2.63
2023-05-21T09:42:04.281Z,2.67
2023-05-21T09:44:35.489Z,3.17
2023-05-21T09:47:10.340Z,2.95
2023-05-21T09:49:47.002Z,2.75
2023-05-21T09:52:25.977Z,2.55
2023-05-21T09:54:56.358Z,2.70
2023-05-21T09:57:30.747Z,3.13
2023-05-21T10:00:01.614Z,2.25
2023-05-21T10:02:38.699Z,2.72
2023-05-21T10:05:15.934Z,2.67
2023-05-21T10:07:52.029Z,3.03
2023-05-21T10:10:26.981Z,2.83
2023-05-21T10:13:03.548Z,3.00
2023-05-21T10:15:37.520Z,3.05
2023-05-21T10:18:12.952Z,3.05
2023-05-21T10:20:43.881Z,2.85
2023-05-21T10:23:14.181Z,3.10
2023-05-21T10:25:46.298Z,3.90
2023-05-21T10:28:20.174Z,3.38
2023-05-21T10:30:50.637Z,3.03
2023-05-21T10:33:29.210Z,3.03
2023-05-21T10:36:02.260Z,3.50
2023-05-21T10:38:33.391Z,3.00
2023-05-21T10:41:07.169Z,3.38
2023-05-21T10:43:51.577Z,2.92
2023-05-21T10:47:00.696Z,3.28
2023-05-21T10:49:54.184Z,2.92
2023-05-21T10:52:53.621Z,3.22
2023-05-21T10:55:37.767Z,2.60
2023-05-21T10:58:40.513Z,3.13
2023-05-21T11:01:15.610Z,2.80
2023-05-21T11:03:55.183Z,2.78
2023-05-21T11:06:30.034Z,2.90
2023-05-21T11:09:00.521Z,3.45
2023-05-21T11:11:48.781Z,3.42
2023-05-21T11:14:35.982Z,3.53
2023-05-21T11:17:07.614Z,3.63
2023-05-21T11:19:43.118Z,2.80
2023-05-21T11:22:25.765Z,3.20
2023-05-21T11:24:57.388Z,3.03
2023-05-21T11:27:35.517Z,4.05
2023-05-21T11:30:13.973Z,2.88
2023-05-21T11:33:19.170Z,2.55
2023-05-21T11:36:14.473Z,3.17
2023-05-21T11:39:11.963Z,3.40
2023-05-21T11:41:55.570Z,2.80
2023-05-21T11:44:42.362Z,2.78
2023-05-21T11:47:15.159Z,2.80
2023-05-21T11:49:46.128Z,2.72
2023-05-21T11:52:17.268Z,3.83
2023-05-21T11:54:53.778Z,2.47
2023-05-21T11:57:25.829Z,2.35
2023-05-21T11:59:56.859Z,2.20
2023-05-21T12:02:36.077Z,2.35
2023-05-21T12:05:17.604Z,3.17
2023-05-21T12:07:51.847Z,2.30
2023-05-21T12:10:26.925Z,2.72
2023-05-21T12:12:57.780Z,2.60
2023-05-21T12:15:30.002Z,2.25
2023-05-21T12:18:02.284Z,2.78
2023-05-21T12:20:35.011Z,2.63
2023-05-21T12:23:17.979Z,2.60
2023-05-21T12:25:51.324Z,2.70
2023-05-21T12:28:21.829Z,2.78
2023-05-21T12:30:53.786Z,2.85
2023-05-21T12:33:32.392Z,2.85
2023-05-21T12:36:04.198Z,2.92
2023-05-21T12:38:36.974Z,3.45
2023-05-21T12:41:10.359Z,2.90
2023-05-21T12:43:42.838Z,3.22
2023-05-21T12:46:17.971Z,3.35
2023-05-21T12:48:56.990Z,3.22
2023-05-21T12:51:27.270Z,2.40
2023-05-21T12:53:57.670Z,3.08
2023-05-21T12:56:48.082Z,2.95
2023-05-21T12:59:19.947Z,2.80
2023-05-21T13:01:51.351Z,2.85
2023-05-21T13:04:25.631Z,2.88
2023-05-21T13:06:55.965Z,3.03
2023-05-21T13:09:26.293Z,2.65
2023-05-21T13:12:02.414Z,2.75
2023-05-21T13:14:32.674Z,2.88
2023-05-21T13:17:07.813Z,2.75
2023-05-21T13:19:38.147Z,2.58
2023-05-21T13:22:10.573Z,3.33
2023-05-21T13:24:41.342Z,2.72
2023-05-21T13:27:14.425Z,4.00
2023-05-21T13:29:44.726Z,2.63
2023-05-21T13:32:15.057Z,2.80
2023-05-21T13:34:46.468Z,2.67
2023-05-21T13:37:16.757Z,2.78
2023-05-21T13:39:47.097Z,2.97
2023-05-21T13:42:20.062Z,2.70
2023-05-21T13:44:51.025Z,2.90
2023-05-21T13:47:22.788Z,2.75
2023-05-21T13:49:53.202Z,2.83
2023-05-21T13:52:24.269Z,2.78
2023-05-21T13:54:54.571Z,2.65
2023-05-21T13:57:30.981Z,3.17
2023-05-21T14:00:04.131Z,3.08
2023-05-21T14:02:34.903Z,2.72
2023-05-21T14:05:05.402Z,2.72
2023-05-21T14:07:35.901Z,2.88
2023-05-21T14:10:06.342Z,2.95
2023-05-21T14:12:40.965Z,3.03
2023-05-21T14:15:12.357Z,2.80
2023-05-21T14:17:45.720Z,2.95
2023-05-21T14:20:20.502Z,2.53
2023-05-21T14:22:50.779Z,2.90
2023-05-21T14:25:21.027Z,2.90
2023-05-21T14:27:54.512Z,2.83
2023-05-21T14:30:24.951Z,2.63
2023-05-21T14:32:57.258Z,3.15
2023-05-21T14:35:28.314Z,2.80
2023-05-21T14:37:58.660Z,3.05
2023-05-21T14:40:30.098Z,2.40
2023-05-21T14:43:03.045Z,2.65
2023-05-21T14:45:35.756Z,3.10
2023-05-21T14:48:08.771Z,2.13
2023-05-21T14:50:39.392Z,3.22
2023-05-21T14:53:10.507Z,2.67
2023-05-21T14:55:41.516Z,3.55
2023-05-21T14:58:15.006Z,2.65
2023-05-21T15:00:46.333Z,2.72
2023-05-21T15:03:17.093Z,3.10
2023-05-21T15:05:47.572Z,2.70
2023-05-21T15:08:18.025Z,2.97
2023-05-21T15:10:48.569Z,2.95
2023-05-21T15:13:21.662Z,3.90
2023-05-21T15:15:52.566Z,2.53
2023-05-21T15:18:24.979Z,3.83
2023-05-21T15:20:56.609Z,2.65
2023-05-21T15:23:26.895Z,2.70
2023-05-21T15:25:57.157Z,2.83
2023-05-21T15:28:30.116Z,2.67
2023-05-21T15:31:01.830Z,3.00
2023-05-21T15:33:32.178Z,3.00
2023-05-21T15:36:02.451Z,2.58
2023-05-21T15:38:33.106Z,2.80
2023-05-21T15:41:05.727Z,2.80
2023-05-21T15:43:38.820Z,2.72
2023-05-21T15:46:09.160Z,2.78
2023-05-21T15:48:40.038Z,2.42
2023-05-21T15:51:10.324Z,3.33
2023-05-21T15:53:40.838Z,2.67
2023-05-21T15:56:11.565Z,2.90
2023-05-21T15:58:44.441Z,2.45
2023-05-21T16:01:16.912Z,4.00
2023-05-21T16:03:47.287Z,3.08
2023-05-21T16:06:17.579Z,3.05
2023-05-21T16:08:47.884Z,3.58
2023-05-21T16:11:18.181Z,2.70
2023-05-21T16:13:53.071Z,2.83
2023-05-21T16:16:24.789Z,2.67
2023-05-21T16:18:55.511Z,2.85
2023-05-21T16:21:26.920Z,2.83
2023-05-21T16:23:57.279Z,2.70
2023-05-21T16:26:30.447Z,2.60
2023-05-21T16:29:03.273Z,3.00
2023-05-21T16:31:33.686Z,3.28
2023-05-21T16:34:03.881Z,2.97
2023-05-21T16:36:35.039Z,3.30
2023-05-21T16:39:05.383Z,2.88
2023-05-21T16:41:36.696Z,2.90
2023-05-21T16:44:12.253Z,3.38
2023-05-21T16:46:42.638Z,2.67
2023-05-21T16:49:12.997Z,3.20
2023-05-21T16:51:43.280Z,2.85
2023-05-21T16:54:13.602Z,2.40
2023-05-21T16:56:44.225Z,2.97
2023-05-21T16:59:17.141Z,3.95
2023-05-21T17:01:47.672Z,3.08
2023-05-21T17:04:17.927Z,3.92
2023-05-21T17:06:48.230Z,3.92
2023-05-21T17:09:18.933Z,3.20
2023-05-21T17:11:49.364Z,3.15
2023-05-21T17:14:33.075Z,3.00
2023-05-21T17:17:04.419Z,2.95
2023-05-21T17:19:34.803Z,3.15
2023-05-21T17:22:05.085Z,3.47
2023-05-21T17:24:35.335Z,3.30
2023-05-21T17:27:05.703Z,3.05
2023-05-21T17:29:38.654Z,4.43
2023-05-21T17:32:12.628Z,2.80
2023-05-21T17:34:42.918Z,3.15
2023-05-21T17:37:13.257Z,3.47
2023-05-21T17:39:44.133Z,3.53
2023-05-21T17:42:14.566Z,4.22
2023-05-21T17:44:47.473Z,3.65
2023-05-21T17:47:17.813Z,3.97
2023-05-21T17:49:48.125Z,3.50
2023-05-21T17:52:18.412Z,3.95
2023-05-21T17:54:48.736Z,3.22
2023-05-21T17:57:22.262Z,3.13
2023-05-21T17:59:55.433Z,3.65
2023-05-21T18:02:27.652Z,3.42
2023-05-21T18:04:58.239Z,4.43
2023-05-21T18:07:28.616Z,4.55
2023-05-21T18:09:58.985Z,4.53
2023-05-21T18:12:29.230Z,4.50
2023-05-21T18:15:02.534Z,3.50
2023-05-21T18:17:32.918Z,4.55
2023-05-21T18:20:04.363Z,5.07
2023-05-21T18:22:35.080Z,4.30
2023-05-21T18:25:05.554Z,3.80
2023-05-21T18:27:36.235Z,4.43
2023-05-21T18:30:11.154Z,4.35
2023-05-21T18:32:41.789Z,4.20
2023-05-21T18:35:14.444Z,3.55
2023-05-21T18:37:48.836Z,3.83
2023-05-21T18:40:22.382Z,4.07
2023-05-21T18:43:00.935Z,5.00
2023-05-21T18:45:34.779Z,4.82
2023-05-21T18:48:06.011Z,4.15
2023-05-21T18:50:37.443Z,3.55
2023-05-21T18:53:08.915Z,3.42
2023-05-21T18:55:39.656Z,4.43
2023-05-21T18:58:13.156Z,3.33
2023-05-21T19:00:47.004Z,2.90
2023-05-21T19:03:18.412Z,2.72
2023-05-21T19:05:49.295Z,3.00
2023-05-21T19:08:19.969Z,2.83
2023-05-21T19:10:50.735Z,2.90
2023-05-21T19:13:21.631Z,2.75
2023-05-21T19:15:55.180Z,2.58
2023-05-21T19:18:30.477Z,1.23
2023-05-21T19:21:01.333Z,2.20
2023-05-21T19:23:41.213Z,1.83
2023-05-21T19:26:19.898Z,1.90
2023-05-21T19:28:53.896Z,1.83
2023-05-21T19:31:29.868Z,2.03
2023-05-21T19:34:00.702Z,2.38
2023-05-21T19:36:41.034Z,2.10
2023-05-21T19:39:25.562Z,1.83
2023-05-21T19:41:59.373Z,2.90
2023-05-21T19:44:30.100Z,1.85
2023-05-21T19:47:03.954Z,2.40
2023-05-21T19:49:35.795Z,2.20
2023-05-21T19:52:06.718Z,2.50
2023-05-21T19:54:38.812Z,2.10
2023-05-21T19:57:12.284Z,2.08
2023-05-21T19:59:43.375Z,2.13
2023-05-21T20:02:19.688Z,1.63
2023-05-21T20:04:51.193Z,1.60
2023-05-21T20:07:21.799Z,2.03
2023-05-21T20:09:52.637Z,1.73
2023-05-21T20:12:23.114Z,1.52
2023-05-21T20:14:54.437Z,1.88
2023-05-21T20:17:28.929Z,1.90
2023-05-21T20:20:01.573Z,1.85
2023-05-21T20:22:32.298Z,1.63
2023-05-21T20:25:04.239Z,1.88
2023-05-21T20:27:36.015Z,2.10
2023-05-21T20:30:06.854Z,1.67
2023-05-21T20:32:39.865Z,2.10
2023-05-21T20:35:11.949Z,1.92
2023-05-21T20:37:42.549Z,1.90
2023-05-21T20:40:15.016Z,2.33
2023-05-21T20:42:45.704Z,1.83
2023-05-21T20:45:16.120Z,1.70
2023-05-21T20:47:50.270Z,1.95
2023-05-21T20:50:26.294Z,1.48
2023-05-21T20:52:58.249Z,2.67
2023-05-21T20:55:28.621Z,1.50
2023-05-21T20:58:01.724Z,1.60
2023-05-21T21:00:32.070Z,1.77
2023-05-21T21:03:05.080Z,1.73
2023-05-21T21:05:35.552Z,1.92
2023-05-21T21:08:08.390Z,1.85
2023-05-21T21:10:41.472Z,3.10
2023-05-21T21:13:11.962Z,1.75
2023-05-21T21:15:44.121Z,1.85
2023-05-21T21:18:17.837Z,1.58
2023-05-21T21:20:50.012Z,1.70
2023-05-21T21:23:23.401Z,1.50
2023-05-21T21:25:56.449Z,1.92
2023-05-21T21:28:26.759Z,1.80
2023-05-21T21:30:57.247Z,1.27
2023-05-21T21:33:30.210Z,2.47
2023-05-21T21:36:00.525Z,2.30
2023-05-21T21:38:30.815Z,1.90
2023-05-21T21:41:03.860Z,2.05
2023-05-21T21:43:34.146Z,1.83
2023-05-21T21:46:04.461Z,1.75
2023-05-21T21:48:37.608Z,1.77
2023-05-21T21:51:08.400Z,2.03
2023-05-21T21:53:38.658Z,2.50
2023-05-21T21:56:09.581Z,1.80
2023-05-21T21:58:39.793Z,1.88
2023-05-21T22:01:10.216Z,1.52
2023-05-21T22:03:43.244Z,1.70
2023-05-21T22:06:13.510Z,1.90
2023-05-21T22:08:43.890Z,2.10
2023-05-21T22:11:14.607Z,2.00
2023-05-21T22:13:45.588Z,2.05
2023-05-21T22:16:15.920Z,2.10
2023-05-21T22:18:50.408Z,1.67
2023-05-21T22:21:21.836Z,1.92
2023-05-21T22:23:52.109Z,2.22
2023-05-21T22:26:22.786Z,1.92
2023-05-21T22:28:53.455Z,1.75
2023-05-21T22:31:23.962Z,1.83
2023-05-21T22:33:59.699Z,2.25
2023-05-21T22:36:29.986Z,1.50
2023-05-21T22:39:00.229Z,1.48
2023-05-21T22:41:30.548Z,2.28
2023-05-21T22:44:00.933Z,1.60
2023-05-21T22:46:32.285Z,2.10
2023-05-21T22:49:05.350Z,1.73
2023-05-21T22:51:36.255Z,1.67
2023-05-21T22:54:06.824Z,2.25
2023-05-21T22:56:37.102Z,1.73
2023-05-21T22:59:07.295Z,2.08
2023-05-21T23:04:11.443Z,1.77
2023-05-21T23:06:41.752Z,1.80
2023-05-21T23:09:12.987Z,1.80
2023-05-21T23:11:43.258Z,2.38
2023-05-21T23:14:13.802Z,2.50
2023-05-21T23:16:44.486Z,1.77
2023-05-21T23:19:17.817Z,1.42
2023-05-21T23:21:48.539Z,2.00
2023-05-21T23:24:18.942Z,1.67
2023-05-21T23:26:49.408Z,1.95
2023-05-21T23:29:19.790Z,2.13
2023-05-21T23:31:50.278Z,2.13
2023-05-21T23:34:24.300Z,1.70
2023-05-21T23:37:00.209Z,2.08
2023-05-21T23:39:31.025Z,1.90
2023-05-21T23:42:01.380Z,1.90
2023-05-21T23:44:31.768Z,1.75
2023-05-21T23:47:01.983Z,2.10
2023-05-21T23:52:04.884Z,1.75
2023-05-21T23:54:35.082Z,1.88
2023-05-21T23:57:05.409Z,1.58
